sensor_id;sensor_type;location;lat;lon;timestamp;temperature;humidity
19908;DHT22;10116;53.112;7.356;2022-09-21T00:00:40;25.50;99.90
19908;DHT22;10116;53.112;7.356;2022-09-21T00:03:06;25.50;99.90
19908;DHT22;10116;53.112;7.356;2022-09-21T00:05:32;25.50;99.90
19908;DHT22;10116;53.112;7.356;2022-09-21T00:08:06;25.50;99.90
19908;DHT22;10116;53.112;7.356;2022-09-21T00:10:33;25.50;99.90
19908;DHT22;10116;53.112;7.356;2022-09-21T00:12:59;25.50;99.90
19908;DHT22;10116;53.112;7.356;2022-09-21T00:15:28;25.50;99.90
19908;DHT22;10116;53.112;7.356;2022-09-21T00:17:55;25.50;99.90
19908;DHT22;10116;53.112;7.356;2022-09-21T00:20:22;25.50;99.90
19908;DHT22;10116;53.112;7.356;2022-09-21T00:22:49;25.40;99.90
19908;DHT22;10116;53.112;7.356;2022-09-21T00:25:16;25.50;99.90
19908;DHT22;10116;53.112;7.356;2022-09-21T00:27:42;25.50;99.90
19908;DHT22;10116;53.112;7.356;2022-09-21T00:30:08;25.50;99.90
19908;DHT22;10116;53.112;7.356;2022-09-21T00:32:35;25.50;99.90
19908;DHT22;10116;53.112;7.356;2022-09-21T00:35:02;25.50;99.90
19908;DHT22;10116;53.112;7.356;2022-09-21T00:37:28;25.50;99.90
19908;DHT22;10116;53.112;7.356;2022-09-21T00:39:54;25.50;99.90
19908;DHT22;10116;53.112;7.356;2022-09-21T00:42:26;25.50;99.90
19908;DHT22;10116;53.112;7.356;2022-09-21T00:44:52;25.50;99.90
19908;DHT22;10116;53.112;7.356;2022-09-21T00:47:36;25.50;99.90
19908;DHT22;10116;53.112;7.356;2022-09-21T00:50:08;25.50;99.90
19908;DHT22;10116;53.112;7.356;2022-09-21T00:52:40;25.50;99.90
19908;DHT22;10116;53.112;7.356;2022-09-21T00:55:16;25.40;99.90
19908;DHT22;10116;53.112;7.356;2022-09-21T00:57:45;25.40;99.90
19908;DHT22;10116;53.112;7.356;2022-09-21T01:00:12;25.40;99.90
19908;DHT22;10116;53.112;7.356;2022-09-21T01:02:39;25.40;99.90
19908;DHT22;10116;53.112;7.356;2022-09-21T01:05:06;25.40;99.90
19908;DHT22;10116;53.112;7.356;2022-09-21T01:07:35;25.40;99.90
19908;DHT22;10116;53.112;7.356;2022-09-21T01:10:07;25.40;99.90
19908;DHT22;10116;53.112;7.356;2022-09-21T01:15:22;25.40;99.90
19908;DHT22;10116;53.112;7.356;2022-09-21T01:23:49;25.60;99.90
19908;DHT22;10116;53.112;7.356;2022-09-21T01:31:51;25.90;99.90
19908;DHT22;10116;53.112;7.356;2022-09-21T01:34:44;25.90;99.90
19908;DHT22;10116;53.112;7.356;2022-09-21T01:37:24;25.90;99.90
19908;DHT22;10116;53.112;7.356;2022-09-21T01:39:56;25.90;99.90
19908;DHT22;10116;53.112;7.356;2022-09-21T01:42:25;25.90;99.90
19908;DHT22;10116;53.112;7.356;2022-09-21T01:44:52;25.90;99.90
19908;DHT22;10116;53.112;7.356;2022-09-21T01:47:20;25.90;99.90
19908;DHT22;10116;53.112;7.356;2022-09-21T01:49:51;25.90;99.90
19908;DHT22;10116;53.112;7.356;2022-09-21T01:52:27;25.90;99.90
19908;DHT22;10116;53.112;7.356;2022-09-21T01:54:59;25.90;99.90
19908;DHT22;10116;53.112;7.356;2022-09-21T01:59:59;25.90;99.90
19908;DHT22;10116;53.112;7.356;2022-09-21T02:02:40;25.90;99.90
19908;DHT22;10116;53.112;7.356;2022-09-21T02:05:07;25.90;99.90
19908;DHT22;10116;53.112;7.356;2022-09-21T02:07:33;25.90;99.90
19908;DHT22;10116;53.112;7.356;2022-09-21T02:10:01;25.90;99.90
19908;DHT22;10116;53.112;7.356;2022-09-21T02:12:27;25.80;99.90
19908;DHT22;10116;53.112;7.356;2022-09-21T02:14:55;25.80;99.90
19908;DHT22;10116;53.112;7.356;2022-09-21T02:17:35;25.80;99.90
19908;DHT22;10116;53.112;7.356;2022-09-21T02:20:35;25.80;99.90
19908;DHT22;10116;53.112;7.356;2022-09-21T02:25:51;25.80;99.90
19908;DHT22;10116;53.112;7.356;2022-09-21T02:31:06;25.80;99.90
19908;DHT22;10116;53.112;7.356;2022-09-21T02:33:46;25.70;99.90
19908;DHT22;10116;53.112;7.356;2022-09-21T02:39:37;25.70;99.90
19908;DHT22;10116;53.112;7.356;2022-09-21T02:42:12;25.70;99.90
19908;DHT22;10116;53.112;7.356;2022-09-21T02:44:46;25.70;99.90
19908;DHT22;10116;53.112;7.356;2022-09-21T02:47:20;25.60;99.90
19908;DHT22;10116;53.112;7.356;2022-09-21T02:49:50;25.60;99.90
19908;DHT22;10116;53.112;7.356;2022-09-21T02:52:19;25.60;99.90
19908;DHT22;10116;53.112;7.356;2022-09-21T02:54:48;25.60;99.90
19908;DHT22;10116;53.112;7.356;2022-09-21T02:57:17;25.60;99.90
19908;DHT22;10116;53.112;7.356;2022-09-21T02:59:43;25.60;99.90
19908;DHT22;10116;53.112;7.356;2022-09-21T03:02:10;25.60;99.90
19908;DHT22;10116;53.112;7.356;2022-09-21T03:04:38;25.60;99.90
19908;DHT22;10116;53.112;7.356;2022-09-21T03:07:06;25.60;99.90
19908;DHT22;10116;53.112;7.356;2022-09-21T03:09:32;25.60;99.90
19908;DHT22;10116;53.112;7.356;2022-09-21T03:11:57;25.60;99.90
19908;DHT22;10116;53.112;7.356;2022-09-21T03:14:23;25.60;99.90
19908;DHT22;10116;53.112;7.356;2022-09-21T03:16:48;25.50;99.90
19908;DHT22;10116;53.112;7.356;2022-09-21T03:19:14;25.50;99.90
19908;DHT22;10116;53.112;7.356;2022-09-21T03:21:40;25.50;99.90
19908;DHT22;10116;53.112;7.356;2022-09-21T03:24:06;25.50;99.90
19908;DHT22;10116;53.112;7.356;2022-09-21T03:26:32;25.60;99.90
19908;DHT22;10116;53.112;7.356;2022-09-21T03:28:58;25.60;99.90
19908;DHT22;10116;53.112;7.356;2022-09-21T03:31:23;25.70;99.90
19908;DHT22;10116;53.112;7.356;2022-09-21T03:33:49;25.80;99.90
19908;DHT22;10116;53.112;7.356;2022-09-21T03:36:15;25.90;99.90
19908;DHT22;10116;53.112;7.356;2022-09-21T03:38:40;25.90;99.90
19908;DHT22;10116;53.112;7.356;2022-09-21T03:41:07;25.90;99.90
19908;DHT22;10116;53.112;7.356;2022-09-21T03:43:32;25.90;99.90
19908;DHT22;10116;53.112;7.356;2022-09-21T03:45:58;26.00;99.90
19908;DHT22;10116;53.112;7.356;2022-09-21T03:48:24;25.90;99.90
19908;DHT22;10116;53.112;7.356;2022-09-21T03:50:49;26.00;99.90
19908;DHT22;10116;53.112;7.356;2022-09-21T03:53:15;26.00;99.90
19908;DHT22;10116;53.112;7.356;2022-09-21T03:55:41;26.00;99.90
19908;DHT22;10116;53.112;7.356;2022-09-21T03:58:08;26.00;99.90
19908;DHT22;10116;53.112;7.356;2022-09-21T04:00:34;25.90;99.90
19908;DHT22;10116;53.112;7.356;2022-09-21T04:03:00;25.90;99.90
19908;DHT22;10116;53.112;7.356;2022-09-21T04:05:27;25.90;99.90
19908;DHT22;10116;53.112;7.356;2022-09-21T04:07:54;25.90;99.90
19908;DHT22;10116;53.112;7.356;2022-09-21T04:10:21;25.90;99.90
19908;DHT22;10116;53.112;7.356;2022-09-21T04:12:53;25.90;99.90
19908;DHT22;10116;53.112;7.356;2022-09-21T04:15:21;25.90;99.90
19908;DHT22;10116;53.112;7.356;2022-09-21T04:17:50;25.90;99.90
19908;DHT22;10116;53.112;7.356;2022-09-21T04:20:16;25.90;99.90
19908;DHT22;10116;53.112;7.356;2022-09-21T04:22:42;25.80;99.90
19908;DHT22;10116;53.112;7.356;2022-09-21T04:25:10;25.80;99.90
19908;DHT22;10116;53.112;7.356;2022-09-21T04:27:36;25.80;99.90
19908;DHT22;10116;53.112;7.356;2022-09-21T04:30:02;25.80;99.90
19908;DHT22;10116;53.112;7.356;2022-09-21T04:32:28;25.80;99.90
19908;DHT22;10116;53.112;7.356;2022-09-21T04:34:53;25.80;99.90
19908;DHT22;10116;53.112;7.356;2022-09-21T04:37:20;25.80;99.90
19908;DHT22;10116;53.112;7.356;2022-09-21T04:39:45;25.70;99.90
19908;DHT22;10116;53.112;7.356;2022-09-21T04:42:11;25.70;99.90
19908;DHT22;10116;53.112;7.356;2022-09-21T04:44:37;25.70;99.90
19908;DHT22;10116;53.112;7.356;2022-09-21T04:47:03;25.70;99.90
19908;DHT22;10116;53.112;7.356;2022-09-21T04:49:28;25.70;99.90
19908;DHT22;10116;53.112;7.356;2022-09-21T04:51:54;25.80;99.90
19908;DHT22;10116;53.112;7.356;2022-09-21T04:54:21;25.90;99.90
19908;DHT22;10116;53.112;7.356;2022-09-21T04:56:47;25.90;99.90
19908;DHT22;10116;53.112;7.356;2022-09-21T04:59:12;25.90;99.90
19908;DHT22;10116;53.112;7.356;2022-09-21T05:01:38;26.00;99.90
19908;DHT22;10116;53.112;7.356;2022-09-21T05:04:03;26.00;99.90
19908;DHT22;10116;53.112;7.356;2022-09-21T05:06:30;26.10;99.90
19908;DHT22;10116;53.112;7.356;2022-09-21T05:08:56;26.00;99.90
19908;DHT22;10116;53.112;7.356;2022-09-21T05:11:40;26.10;99.90
19908;DHT22;10116;53.112;7.356;2022-09-21T05:14:07;26.10;99.90
19908;DHT22;10116;53.112;7.356;2022-09-21T05:16:33;26.00;99.90
19908;DHT22;10116;53.112;7.356;2022-09-21T05:18:59;26.00;99.90
19908;DHT22;10116;53.112;7.356;2022-09-21T05:21:24;26.00;99.90
19908;DHT22;10116;53.112;7.356;2022-09-21T05:23:50;26.00;99.90
19908;DHT22;10116;53.112;7.356;2022-09-21T05:26:16;26.00;99.90
19908;DHT22;10116;53.112;7.356;2022-09-21T05:28:42;25.90;99.90
19908;DHT22;10116;53.112;7.356;2022-09-21T05:39:14;25.90;99.90
19908;DHT22;10116;53.112;7.356;2022-09-21T05:41:40;25.90;99.90
19908;DHT22;10116;53.112;7.356;2022-09-21T05:44:08;25.90;99.90
19908;DHT22;10116;53.112;7.356;2022-09-21T05:49:18;25.90;99.90
19908;DHT22;10116;53.112;7.356;2022-09-21T05:54:14;25.80;99.90
19908;DHT22;10116;53.112;7.356;2022-09-21T05:56:51;25.80;99.90
19908;DHT22;10116;53.112;7.356;2022-09-21T06:04:46;25.90;99.90
19908;DHT22;10116;53.112;7.356;2022-09-21T06:07:13;25.80;99.90
19908;DHT22;10116;53.112;7.356;2022-09-21T06:09:39;25.90;99.90
19908;DHT22;10116;53.112;7.356;2022-09-21T06:12:05;25.80;99.90
19908;DHT22;10116;53.112;7.356;2022-09-21T06:14:31;25.90;99.90
19908;DHT22;10116;53.112;7.356;2022-09-21T06:16:56;25.90;99.90
19908;DHT22;10116;53.112;7.356;2022-09-21T06:19:22;26.00;99.90
19908;DHT22;10116;53.112;7.356;2022-09-21T06:21:47;26.10;99.90
19908;DHT22;10116;53.112;7.356;2022-09-21T06:24:13;26.10;99.90
19908;DHT22;10116;53.112;7.356;2022-09-21T06:26:39;26.20;99.90
19908;DHT22;10116;53.112;7.356;2022-09-21T06:29:04;26.20;99.90
19908;DHT22;10116;53.112;7.356;2022-09-21T06:31:31;26.20;99.90
19908;DHT22;10116;53.112;7.356;2022-09-21T06:33:57;26.20;99.90
19908;DHT22;10116;53.112;7.356;2022-09-21T06:36:23;26.20;99.90
19908;DHT22;10116;53.112;7.356;2022-09-21T06:38:48;26.20;99.90
19908;DHT22;10116;53.112;7.356;2022-09-21T06:41:15;26.20;99.90
19908;DHT22;10116;53.112;7.356;2022-09-21T06:43:40;26.20;99.90
19908;DHT22;10116;53.112;7.356;2022-09-21T06:46:06;26.30;99.90
19908;DHT22;10116;53.112;7.356;2022-09-21T06:48:34;26.20;99.90
19908;DHT22;10116;53.112;7.356;2022-09-21T06:51:01;26.20;99.90
19908;DHT22;10116;53.112;7.356;2022-09-21T06:53:29;26.20;99.90
19908;DHT22;10116;53.112;7.356;2022-09-21T06:56:08;26.20;99.90
19908;DHT22;10116;53.112;7.356;2022-09-21T06:58:35;26.20;99.90
19908;DHT22;10116;53.112;7.356;2022-09-21T07:01:08;26.20;99.90
19908;DHT22;10116;53.112;7.356;2022-09-21T07:03:34;26.20;99.90
19908;DHT22;10116;53.112;7.356;2022-09-21T07:06:00;26.20;99.90
19908;DHT22;10116;53.112;7.356;2022-09-21T07:08:25;26.20;99.90
19908;DHT22;10116;53.112;7.356;2022-09-21T07:10:51;26.20;99.90
19908;DHT22;10116;53.112;7.356;2022-09-21T07:13:17;26.20;99.90
19908;DHT22;10116;53.112;7.356;2022-09-21T07:15:43;26.20;99.90
19908;DHT22;10116;53.112;7.356;2022-09-21T07:18:13;26.20;99.90
19908;DHT22;10116;53.112;7.356;2022-09-21T07:20:39;26.20;99.90
19908;DHT22;10116;53.112;7.356;2022-09-21T07:23:16;26.20;99.90
19908;DHT22;10116;53.112;7.356;2022-09-21T07:25:44;26.20;99.90
19908;DHT22;10116;53.112;7.356;2022-09-21T07:28:11;26.20;99.90
19908;DHT22;10116;53.112;7.356;2022-09-21T07:30:38;26.20;99.90
19908;DHT22;10116;53.112;7.356;2022-09-21T07:33:04;26.20;99.90
19908;DHT22;10116;53.112;7.356;2022-09-21T07:35:30;26.20;99.90
19908;DHT22;10116;53.112;7.356;2022-09-21T07:38:04;26.20;99.90
19908;DHT22;10116;53.112;7.356;2022-09-21T07:40:30;26.20;99.90
19908;DHT22;10116;53.112;7.356;2022-09-21T07:42:57;26.20;99.90
19908;DHT22;10116;53.112;7.356;2022-09-21T07:45:24;26.30;99.90
19908;DHT22;10116;53.112;7.356;2022-09-21T07:47:49;26.40;99.90
19908;DHT22;10116;53.112;7.356;2022-09-21T07:50:21;26.50;99.90
19908;DHT22;10116;53.112;7.356;2022-09-21T07:52:47;26.50;99.90
19908;DHT22;10116;53.112;7.356;2022-09-21T07:55:13;26.50;99.90
19908;DHT22;10116;53.112;7.356;2022-09-21T07:57:39;26.50;99.90
19908;DHT22;10116;53.112;7.356;2022-09-21T08:00:23;26.50;99.90
19908;DHT22;10116;53.112;7.356;2022-09-21T08:02:50;26.50;99.90
19908;DHT22;10116;53.112;7.356;2022-09-21T08:05:15;26.50;99.90
19908;DHT22;10116;53.112;7.356;2022-09-21T08:07:41;26.50;99.90
19908;DHT22;10116;53.112;7.356;2022-09-21T08:10:07;26.50;99.90
19908;DHT22;10116;53.112;7.356;2022-09-21T08:12:33;26.50;99.90
19908;DHT22;10116;53.112;7.356;2022-09-21T08:14:58;26.50;99.90
19908;DHT22;10116;53.112;7.356;2022-09-21T08:17:24;26.50;99.90
19908;DHT22;10116;53.112;7.356;2022-09-21T08:19:50;26.50;99.90
19908;DHT22;10116;53.112;7.356;2022-09-21T08:22:15;26.50;99.90
19908;DHT22;10116;53.112;7.356;2022-09-21T08:24:41;26.50;99.90
19908;DHT22;10116;53.112;7.356;2022-09-21T08:27:09;26.50;99.90
19908;DHT22;10116;53.112;7.356;2022-09-21T08:29:34;26.50;99.90
19908;DHT22;10116;53.112;7.356;2022-09-21T08:32:01;26.40;99.90
19908;DHT22;10116;53.112;7.356;2022-09-21T08:34:26;26.40;99.90
19908;DHT22;10116;53.112;7.356;2022-09-21T08:36:52;26.40;99.90
19908;DHT22;10116;53.112;7.356;2022-09-21T08:39:18;26.40;99.90
19908;DHT22;10116;53.112;7.356;2022-09-21T08:44:30;26.40;99.90
19908;DHT22;10116;53.112;7.356;2022-09-21T08:49:37;26.40;99.90
19908;DHT22;10116;53.112;7.356;2022-09-21T08:52:07;26.40;99.90
19908;DHT22;10116;53.112;7.356;2022-09-21T08:54:50;26.40;99.90
19908;DHT22;10116;53.112;7.356;2022-09-21T08:57:18;26.40;99.90
19908;DHT22;10116;53.112;7.356;2022-09-21T08:59:46;26.40;99.90
19908;DHT22;10116;53.112;7.356;2022-09-21T09:05:06;26.40;99.90
19908;DHT22;10116;53.112;7.356;2022-09-21T09:18:36;26.40;99.90
19908;DHT22;10116;53.112;7.356;2022-09-21T15:38:33;25.60;99.90
19908;DHT22;10116;53.112;7.356;2022-09-21T15:41:01;25.60;99.90
19908;DHT22;10116;53.112;7.356;2022-09-21T15:43:27;25.60;99.90
19908;DHT22;10116;53.112;7.356;2022-09-21T15:46:00;25.60;99.90
19908;DHT22;10116;53.112;7.356;2022-09-21T15:48:47;25.60;99.90
19908;DHT22;10116;53.112;7.356;2022-09-21T15:51:29;25.60;99.90
19908;DHT22;10116;53.112;7.356;2022-09-21T15:54:13;25.60;99.90
19908;DHT22;10116;53.112;7.356;2022-09-21T15:56:42;25.60;99.90
19908;DHT22;10116;53.112;7.356;2022-09-21T15:59:16;25.60;99.90
19908;DHT22;10116;53.112;7.356;2022-09-21T16:01:48;25.60;99.90
19908;DHT22;10116;53.112;7.356;2022-09-21T16:04:20;25.60;99.90
19908;DHT22;10116;53.112;7.356;2022-09-21T16:07:02;25.60;99.90
19908;DHT22;10116;53.112;7.356;2022-09-21T16:09:43;25.60;99.90
19908;DHT22;10116;53.112;7.356;2022-09-21T16:12:47;25.60;99.90
19908;DHT22;10116;53.112;7.356;2022-09-21T16:15:17;25.60;99.90
19908;DHT22;10116;53.112;7.356;2022-09-21T16:17:55;25.50;99.90
19908;DHT22;10116;53.112;7.356;2022-09-21T16:20:24;25.60;99.90
19908;DHT22;10116;53.112;7.356;2022-09-21T16:23:03;25.60;99.90
19908;DHT22;10116;53.112;7.356;2022-09-21T16:25:35;25.70;99.90
19908;DHT22;10116;53.112;7.356;2022-09-21T16:28:25;25.80;99.90
19908;DHT22;10116;53.112;7.356;2022-09-21T16:30:53;25.90;99.90
19908;DHT22;10116;53.112;7.356;2022-09-21T16:36:03;26.00;99.90
19908;DHT22;10116;53.112;7.356;2022-09-21T16:38:30;26.00;99.90
19908;DHT22;10116;53.112;7.356;2022-09-21T16:40:58;26.10;99.90
19908;DHT22;10116;53.112;7.356;2022-09-21T16:43:25;26.20;99.90
19908;DHT22;10116;53.112;7.356;2022-09-21T16:45:50;26.20;99.90
19908;DHT22;10116;53.112;7.356;2022-09-21T16:48:16;26.20;99.90
19908;DHT22;10116;53.112;7.356;2022-09-21T16:50:43;26.20;99.90
19908;DHT22;10116;53.112;7.356;2022-09-21T16:53:08;26.20;99.90
19908;DHT22;10116;53.112;7.356;2022-09-21T16:55:34;26.20;99.90
19908;DHT22;10116;53.112;7.356;2022-09-21T16:58:00;26.20;99.90
19908;DHT22;10116;53.112;7.356;2022-09-21T17:00:29;26.20;99.90
19908;DHT22;10116;53.112;7.356;2022-09-21T17:02:55;26.20;99.90
19908;DHT22;10116;53.112;7.356;2022-09-21T17:05:21;26.20;99.90
19908;DHT22;10116;53.112;7.356;2022-09-21T17:07:53;26.20;99.90
19908;DHT22;10116;53.112;7.356;2022-09-21T17:10:20;26.20;99.90
19908;DHT22;10116;53.112;7.356;2022-09-21T17:12:48;26.20;99.90
19908;DHT22;10116;53.112;7.356;2022-09-21T17:15:18;26.20;99.90
19908;DHT22;10116;53.112;7.356;2022-09-21T17:17:44;26.30;99.90
19908;DHT22;10116;53.112;7.356;2022-09-21T17:20:18;26.40;99.90
19908;DHT22;10116;53.112;7.356;2022-09-21T17:22:44;26.40;99.90
19908;DHT22;10116;53.112;7.356;2022-09-21T17:25:10;26.50;99.90
19908;DHT22;10116;53.112;7.356;2022-09-21T17:27:36;26.50;99.90
19908;DHT22;10116;53.112;7.356;2022-09-21T17:30:07;26.50;99.90
19908;DHT22;10116;53.112;7.356;2022-09-21T17:32:35;26.50;99.90
19908;DHT22;10116;53.112;7.356;2022-09-21T17:37:36;26.50;99.90
19908;DHT22;10116;53.112;7.356;2022-09-21T17:40:03;26.50;99.90
19908;DHT22;10116;53.112;7.356;2022-09-21T17:42:29;26.50;99.90
19908;DHT22;10116;53.112;7.356;2022-09-21T17:45:31;26.50;99.90
19908;DHT22;10116;53.112;7.356;2022-09-21T17:48:18;26.50;99.90
19908;DHT22;10116;53.112;7.356;2022-09-21T17:50:45;26.50;99.90
19908;DHT22;10116;53.112;7.356;2022-09-21T17:53:11;26.50;99.90
19908;DHT22;10116;53.112;7.356;2022-09-21T17:56:07;26.40;99.90
19908;DHT22;10116;53.112;7.356;2022-09-21T17:58:57;26.40;99.90
19908;DHT22;10116;53.112;7.356;2022-09-21T18:01:29;26.40;99.90
19908;DHT22;10116;53.112;7.356;2022-09-21T18:03:56;26.40;99.90
19908;DHT22;10116;53.112;7.356;2022-09-21T18:06:22;26.40;99.90
19908;DHT22;10116;53.112;7.356;2022-09-21T18:08:48;26.30;99.90
19908;DHT22;10116;53.112;7.356;2022-09-21T18:14:31;26.30;99.90
19908;DHT22;10116;53.112;7.356;2022-09-21T18:22:43;26.20;99.90
19908;DHT22;10116;53.112;7.356;2022-09-21T18:25:14;26.20;99.90
19908;DHT22;10116;53.112;7.356;2022-09-21T18:27:41;26.20;99.90
19908;DHT22;10116;53.112;7.356;2022-09-21T18:30:11;26.20;99.90
19908;DHT22;10116;53.112;7.356;2022-09-21T18:33:20;26.10;99.90
19908;DHT22;10116;53.112;7.356;2022-09-21T18:38:36;26.10;99.90
19908;DHT22;10116;53.112;7.356;2022-09-21T18:49:51;26.00;99.90
19908;DHT22;10116;53.112;7.356;2022-09-21T18:54:49;26.00;99.90
19908;DHT22;10116;53.112;7.356;2022-09-21T18:57:15;26.00;99.90
19908;DHT22;10116;53.112;7.356;2022-09-21T18:59:42;26.10;99.90
19908;DHT22;10116;53.112;7.356;2022-09-21T19:02:16;26.20;99.90
19908;DHT22;10116;53.112;7.356;2022-09-21T19:04:43;26.30;99.90
19908;DHT22;10116;53.112;7.356;2022-09-21T19:07:15;26.30;99.90
19908;DHT22;10116;53.112;7.356;2022-09-21T19:22:03;26.40;99.90
19908;DHT22;10116;53.112;7.356;2022-09-21T19:29:57;26.30;99.90
19908;DHT22;10116;53.112;7.356;2022-09-21T19:37:49;26.30;99.90
19908;DHT22;10116;53.112;7.356;2022-09-21T19:40:18;26.30;99.90
19908;DHT22;10116;53.112;7.356;2022-09-21T19:45:55;26.30;99.90
19908;DHT22;10116;53.112;7.356;2022-09-21T19:48:52;26.20;99.90
19908;DHT22;10116;53.112;7.356;2022-09-21T19:53:56;26.30;99.90
19908;DHT22;10116;53.112;7.356;2022-09-21T19:56:47;26.20;99.90
19908;DHT22;10116;53.112;7.356;2022-09-21T19:59:32;26.20;99.90
19908;DHT22;10116;53.112;7.356;2022-09-21T20:02:16;26.20;99.90
19908;DHT22;10116;53.112;7.356;2022-09-21T20:08:02;26.20;99.90
19908;DHT22;10116;53.112;7.356;2022-09-21T20:16:08;26.20;99.90
19908;DHT22;10116;53.112;7.356;2022-09-21T20:18:44;26.20;99.90
19908;DHT22;10116;53.112;7.356;2022-09-21T20:21:13;26.10;99.90
19908;DHT22;10116;53.112;7.356;2022-09-21T20:23:39;26.20;99.90
19908;DHT22;10116;53.112;7.356;2022-09-21T20:29:27;26.10;99.90
19908;DHT22;10116;53.112;7.356;2022-09-21T20:31:53;26.10;99.90
19908;DHT22;10116;53.112;7.356;2022-09-21T20:34:20;26.10;99.90
19908;DHT22;10116;53.112;7.356;2022-09-21T20:36:45;26.10;99.90
19908;DHT22;10116;53.112;7.356;2022-09-21T20:39:11;26.10;99.90
19908;DHT22;10116;53.112;7.356;2022-09-21T20:41:37;26.10;99.90
19908;DHT22;10116;53.112;7.356;2022-09-21T20:44:03;26.10;99.90
19908;DHT22;10116;53.112;7.356;2022-09-21T20:46:30;26.10;99.90
19908;DHT22;10116;53.112;7.356;2022-09-21T20:48:55;26.10;99.90
19908;DHT22;10116;53.112;7.356;2022-09-21T20:51:32;26.10;99.90
19908;DHT22;10116;53.112;7.356;2022-09-21T20:53:59;26.10;99.90
19908;DHT22;10116;53.112;7.356;2022-09-21T20:56:27;26.10;99.90
19908;DHT22;10116;53.112;7.356;2022-09-21T20:58:53;26.10;99.90
19908;DHT22;10116;53.112;7.356;2022-09-21T21:01:19;26.10;99.90
19908;DHT22;10116;53.112;7.356;2022-09-21T21:03:45;26.10;99.90
19908;DHT22;10116;53.112;7.356;2022-09-21T21:06:12;26.10;99.90
19908;DHT22;10116;53.112;7.356;2022-09-21T21:08:39;26.10;99.90
19908;DHT22;10116;53.112;7.356;2022-09-21T21:11:04;26.10;99.90
19908;DHT22;10116;53.112;7.356;2022-09-21T21:13:31;26.10;99.90
19908;DHT22;10116;53.112;7.356;2022-09-21T21:15:57;26.10;99.90
19908;DHT22;10116;53.112;7.356;2022-09-21T21:18:25;26.10;99.90
19908;DHT22;10116;53.112;7.356;2022-09-21T21:20:50;26.10;99.90
19908;DHT22;10116;53.112;7.356;2022-09-21T21:23:17;26.10;99.90
19908;DHT22;10116;53.112;7.356;2022-09-21T21:25:42;26.10;99.90
19908;DHT22;10116;53.112;7.356;2022-09-21T21:28:08;26.00;99.90
19908;DHT22;10116;53.112;7.356;2022-09-21T21:30:34;26.00;99.90
19908;DHT22;10116;53.112;7.356;2022-09-21T21:32:59;26.00;99.90
19908;DHT22;10116;53.112;7.356;2022-09-21T21:35:26;26.10;99.90
19908;DHT22;10116;53.112;7.356;2022-09-21T21:37:52;26.00;99.90
19908;DHT22;10116;53.112;7.356;2022-09-21T21:40:17;26.00;99.90
19908;DHT22;10116;53.112;7.356;2022-09-21T21:42:44;26.00;99.90
19908;DHT22;10116;53.112;7.356;2022-09-21T21:45:11;26.00;99.90
19908;DHT22;10116;53.112;7.356;2022-09-21T21:47:36;26.00;99.90
19908;DHT22;10116;53.112;7.356;2022-09-21T21:50:02;26.10;99.90
19908;DHT22;10116;53.112;7.356;2022-09-21T21:52:28;26.00;99.90
19908;DHT22;10116;53.112;7.356;2022-09-21T21:54:54;26.00;99.90
19908;DHT22;10116;53.112;7.356;2022-09-21T21:57:20;26.00;99.90
19908;DHT22;10116;53.112;7.356;2022-09-21T21:59:45;26.00;99.90
19908;DHT22;10116;53.112;7.356;2022-09-21T22:02:11;26.00;99.90
19908;DHT22;10116;53.112;7.356;2022-09-21T22:04:37;26.00;99.90
19908;DHT22;10116;53.112;7.356;2022-09-21T22:07:03;26.00;99.90
19908;DHT22;10116;53.112;7.356;2022-09-21T22:09:30;26.00;99.90
19908;DHT22;10116;53.112;7.356;2022-09-21T22:11:55;26.00;99.90
19908;DHT22;10116;53.112;7.356;2022-09-21T22:14:22;26.00;99.90
19908;DHT22;10116;53.112;7.356;2022-09-21T22:16:48;26.00;99.90
19908;DHT22;10116;53.112;7.356;2022-09-21T22:19:15;26.00;99.90
19908;DHT22;10116;53.112;7.356;2022-09-21T22:21:43;25.90;99.90
19908;DHT22;10116;53.112;7.356;2022-09-21T22:24:12;25.90;99.90
19908;DHT22;10116;53.112;7.356;2022-09-21T22:26:43;25.90;99.90
19908;DHT22;10116;53.112;7.356;2022-09-21T22:29:11;26.00;99.90
19908;DHT22;10116;53.112;7.356;2022-09-21T22:31:43;26.00;99.90
19908;DHT22;10116;53.112;7.356;2022-09-21T22:34:09;26.00;99.90
19908;DHT22;10116;53.112;7.356;2022-09-21T22:36:37;25.90;99.90
19908;DHT22;10116;53.112;7.356;2022-09-21T22:39:04;25.90;99.90
19908;DHT22;10116;53.112;7.356;2022-09-21T22:41:36;25.90;99.90
19908;DHT22;10116;53.112;7.356;2022-09-21T22:44:02;26.00;99.90
19908;DHT22;10116;53.112;7.356;2022-09-21T22:46:29;26.00;99.90
19908;DHT22;10116;53.112;7.356;2022-09-21T22:48:55;26.00;99.90
19908;DHT22;10116;53.112;7.356;2022-09-21T22:51:21;25.90;99.90
19908;DHT22;10116;53.112;7.356;2022-09-21T22:53:48;26.00;99.90
19908;DHT22;10116;53.112;7.356;2022-09-21T22:56:19;26.00;99.90
19908;DHT22;10116;53.112;7.356;2022-09-21T22:58:48;25.90;99.90
19908;DHT22;10116;53.112;7.356;2022-09-21T23:03:48;26.00;99.90
19908;DHT22;10116;53.112;7.356;2022-09-21T23:06:16;26.00;99.90
19908;DHT22;10116;53.112;7.356;2022-09-21T23:08:46;26.00;99.90
19908;DHT22;10116;53.112;7.356;2022-09-21T23:11:16;26.00;99.90
19908;DHT22;10116;53.112;7.356;2022-09-21T23:13:44;26.00;99.90
19908;DHT22;10116;53.112;7.356;2022-09-21T23:16:11;25.90;99.90
19908;DHT22;10116;53.112;7.356;2022-09-21T23:18:38;25.90;99.90
19908;DHT22;10116;53.112;7.356;2022-09-21T23:21:06;26.00;99.90
19908;DHT22;10116;53.112;7.356;2022-09-21T23:23:33;25.90;99.90
19908;DHT22;10116;53.112;7.356;2022-09-21T23:28:30;26.00;99.90
19908;DHT22;10116;53.112;7.356;2022-09-21T23:31:00;25.90;99.90
19908;DHT22;10116;53.112;7.356;2022-09-21T23:33:43;25.90;99.90
19908;DHT22;10116;53.112;7.356;2022-09-21T23:36:11;25.90;99.90
19908;DHT22;10116;53.112;7.356;2022-09-21T23:38:37;25.90;99.90
19908;DHT22;10116;53.112;7.356;2022-09-21T23:41:09;25.90;99.90
19908;DHT22;10116;53.112;7.356;2022-09-21T23:43:36;25.90;99.90
19908;DHT22;10116;53.112;7.356;2022-09-21T23:46:02;25.90;99.90
19908;DHT22;10116;53.112;7.356;2022-09-21T23:48:28;25.90;99.90
19908;DHT22;10116;53.112;7.356;2022-09-21T23:50:55;25.90;99.90
19908;DHT22;10116;53.112;7.356;2022-09-21T23:53:22;25.90;99.90
19908;DHT22;10116;53.112;7.356;2022-09-21T23:55:48;25.90;99.90
19908;DHT22;10116;53.112;7.356;2022-09-21T23:58:14;25.90;99.90
